sensor_id;sensor_type;location;lat;lon;timestamp;P1;durP1;ratioP1;P2;durP2;ratioP2
68379;SDS011;57711;53.196;19.638;2023-03-23T00:01:19;37.40;;;26.80;;
68379;SDS011;57711;53.196;19.638;2023-03-23T00:03:47;42.60;;;28.10;;
68379;SDS011;57711;53.196;19.638;2023-03-23T00:06:16;38.30;;;25.70;;
68379;SDS011;57711;53.196;19.638;2023-03-23T00:08:49;27.40;;;20.20;;
68379;SDS011;57711;53.196;19.638;2023-03-23T00:11:23;37.60;;;25.20;;
68379;SDS011;57711;53.196;19.638;2023-03-23T00:13:52;36.10;;;24.00;;
68379;SDS011;57711;53.196;19.638;2023-03-23T00:16:19;36.00;;;25.00;;
68379;SDS011;57711;53.196;19.638;2023-03-23T00:18:54;42.20;;;27.00;;
68379;SDS011;57711;53.196;19.638;2023-03-23T00:21:23;36.40;;;24.20;;
68379;SDS011;57711;53.196;19.638;2023-03-23T00:23:51;33.00;;;21.50;;
68379;SDS011;57711;53.196;19.638;2023-03-23T00:26:18;33.10;;;23.10;;
68379;SDS011;57711;53.196;19.638;2023-03-23T00:28:44;32.00;;;22.10;;
68379;SDS011;57711;53.196;19.638;2023-03-23T00:31:12;37.40;;;23.60;;
68379;SDS011;57711;53.196;19.638;2023-03-23T00:33:39;37.40;;;25.40;;
68379;SDS011;57711;53.196;19.638;2023-03-23T00:36:07;41.50;;;27.40;;
68379;SDS011;57711;53.196;19.638;2023-03-23T00:38:35;40.70;;;26.80;;
68379;SDS011;57711;53.196;19.638;2023-03-23T00:41:02;35.60;;;24.40;;
68379;SDS011;57711;53.196;19.638;2023-03-23T00:43:29;31.80;;;23.10;;
68379;SDS011;57711;53.196;19.638;2023-03-23T00:45:56;33.80;;;23.80;;
68379;SDS011;57711;53.196;19.638;2023-03-23T00:48:27;31.40;;;21.90;;
68379;SDS011;57711;53.196;19.638;2023-03-23T00:50:54;36.60;;;23.90;;
68379;SDS011;57711;53.196;19.638;2023-03-23T00:53:21;37.10;;;24.90;;
68379;SDS011;57711;53.196;19.638;2023-03-23T00:55:48;48.00;;;31.50;;
68379;SDS011;57711;53.196;19.638;2023-03-23T00:58:16;48.80;;;28.50;;
68379;SDS011;57711;53.196;19.638;2023-03-23T01:00:42;43.40;;;26.60;;
68379;SDS011;57711;53.196;19.638;2023-03-23T01:03:09;38.90;;;25.10;;
68379;SDS011;57711;53.196;19.638;2023-03-23T01:05:44;43.90;;;25.50;;
68379;SDS011;57711;53.196;19.638;2023-03-23T01:08:13;35.70;;;24.70;;
68379;SDS011;57711;53.196;19.638;2023-03-23T01:10:39;40.60;;;26.00;;
68379;SDS011;57711;53.196;19.638;2023-03-23T01:13:06;40.20;;;26.90;;
68379;SDS011;57711;53.196;19.638;2023-03-23T01:15:33;48.40;;;30.40;;
68379;SDS011;57711;53.196;19.638;2023-03-23T01:17:59;44.30;;;28.50;;
68379;SDS011;57711;53.196;19.638;2023-03-23T01:20:25;42.80;;;28.40;;
68379;SDS011;57711;53.196;19.638;2023-03-23T01:22:57;37.30;;;25.80;;
68379;SDS011;57711;53.196;19.638;2023-03-23T01:25:27;37.80;;;25.40;;
68379;SDS011;57711;53.196;19.638;2023-03-23T01:27:54;35.60;;;24.60;;
68379;SDS011;57711;53.196;19.638;2023-03-23T01:30:20;38.30;;;26.00;;
68379;SDS011;57711;53.196;19.638;2023-03-23T01:32:47;44.40;;;28.90;;
68379;SDS011;57711;53.196;19.638;2023-03-23T01:35:13;39.70;;;27.40;;
68379;SDS011;57711;53.196;19.638;2023-03-23T01:37:39;44.30;;;29.70;;
68379;SDS011;57711;53.196;19.638;2023-03-23T01:40:05;40.70;;;28.30;;
68379;SDS011;57711;53.196;19.638;2023-03-23T01:42:33;39.90;;;24.40;;
68379;SDS011;57711;53.196;19.638;2023-03-23T01:48:13;34.80;;;25.30;;
68379;SDS011;57711;53.196;19.638;2023-03-23T01:50:50;40.00;;;26.70;;
68379;SDS011;57711;53.196;19.638;2023-03-23T01:55:50;50.40;;;25.80;;
68379;SDS011;57711;53.196;19.638;2023-03-23T01:58:20;42.80;;;26.80;;
68379;SDS011;57711;53.196;19.638;2023-03-23T02:00:53;41.80;;;26.70;;
68379;SDS011;57711;53.196;19.638;2023-03-23T02:03:24;41.80;;;27.40;;
68379;SDS011;57711;53.196;19.638;2023-03-23T02:05:51;31.50;;;20.80;;
68379;SDS011;57711;53.196;19.638;2023-03-23T02:08:31;36.70;;;23.90;;
68379;SDS011;57711;53.196;19.638;2023-03-23T02:10:59;40.60;;;24.80;;
68379;SDS011;57711;53.196;19.638;2023-03-23T02:13:27;36.30;;;23.10;;
68379;SDS011;57711;53.196;19.638;2023-03-23T02:25:09;35.40;;;24.30;;
68379;SDS011;57711;53.196;19.638;2023-03-23T02:38:53;38.80;;;24.50;;
68379;SDS011;57711;53.196;19.638;2023-03-23T02:41:21;41.70;;;27.70;;
68379;SDS011;57711;53.196;19.638;2023-03-23T02:43:52;43.30;;;27.80;;
68379;SDS011;57711;53.196;19.638;2023-03-23T02:46:20;46.10;;;28.80;;
68379;SDS011;57711;53.196;19.638;2023-03-23T02:48:47;43.30;;;29.30;;
68379;SDS011;57711;53.196;19.638;2023-03-23T02:51:18;46.70;;;25.80;;
68379;SDS011;57711;53.196;19.638;2023-03-23T02:53:46;50.40;;;29.20;;
68379;SDS011;57711;53.196;19.638;2023-03-23T02:56:17;47.60;;;26.30;;
68379;SDS011;57711;53.196;19.638;2023-03-23T02:58:46;38.90;;;25.30;;
68379;SDS011;57711;53.196;19.638;2023-03-23T03:03:51;42.00;;;26.20;;
68379;SDS011;57711;53.196;19.638;2023-03-23T03:06:23;43.20;;;26.40;;
68379;SDS011;57711;53.196;19.638;2023-03-23T03:09:02;44.60;;;27.00;;
68379;SDS011;57711;53.196;19.638;2023-03-23T03:11:33;46.00;;;27.50;;
68379;SDS011;57711;53.196;19.638;2023-03-23T03:14:13;50.20;;;28.40;;
68379;SDS011;57711;53.196;19.638;2023-03-23T03:16:52;51.00;;;31.10;;
68379;SDS011;57711;53.196;19.638;2023-03-23T03:19:27;49.30;;;29.70;;
68379;SDS011;57711;53.196;19.638;2023-03-23T03:21:57;46.60;;;27.40;;
68379;SDS011;57711;53.196;19.638;2023-03-23T03:24:35;41.00;;;23.80;;
68379;SDS011;57711;53.196;19.638;2023-03-23T03:27:03;41.20;;;25.00;;
68379;SDS011;57711;53.196;19.638;2023-03-23T03:29:41;39.00;;;23.20;;
68379;SDS011;57711;53.196;19.638;2023-03-23T03:32:16;41.60;;;25.00;;
68379;SDS011;57711;53.196;19.638;2023-03-23T03:34:47;40.60;;;24.70;;
68379;SDS011;57711;53.196;19.638;2023-03-23T03:37:13;35.60;;;24.50;;
68379;SDS011;57711;53.196;19.638;2023-03-23T03:39:41;36.10;;;22.50;;
68379;SDS011;57711;53.196;19.638;2023-03-23T03:42:09;35.40;;;22.80;;
68379;SDS011;57711;53.196;19.638;2023-03-23T03:44:36;39.00;;;22.60;;
68379;SDS011;57711;53.196;19.638;2023-03-23T03:47:03;33.90;;;21.50;;
68379;SDS011;57711;53.196;19.638;2023-03-23T03:49:29;41.40;;;24.60;;
68379;SDS011;57711;53.196;19.638;2023-03-23T03:51:55;34.80;;;23.10;;
68379;SDS011;57711;53.196;19.638;2023-03-23T03:54:25;38.90;;;24.10;;
68379;SDS011;57711;53.196;19.638;2023-03-23T03:56:52;36.00;;;22.80;;
68379;SDS011;57711;53.196;19.638;2023-03-23T03:59:43;39.30;;;23.00;;
68379;SDS011;57711;53.196;19.638;2023-03-23T04:02:13;35.10;;;22.60;;
68379;SDS011;57711;53.196;19.638;2023-03-23T04:04:42;45.50;;;24.90;;
68379;SDS011;57711;53.196;19.638;2023-03-23T04:07:09;38.80;;;22.90;;
68379;SDS011;57711;53.196;19.638;2023-03-23T04:09:40;45.50;;;23.90;;
68379;SDS011;57711;53.196;19.638;2023-03-23T04:12:07;37.20;;;23.90;;
68379;SDS011;57711;53.196;19.638;2023-03-23T04:14:52;42.50;;;25.00;;
68379;SDS011;57711;53.196;19.638;2023-03-23T04:17:18;42.80;;;24.30;;
68379;SDS011;57711;53.196;19.638;2023-03-23T04:19:45;46.80;;;27.00;;
68379;SDS011;57711;53.196;19.638;2023-03-23T04:22:13;42.30;;;25.30;;
68379;SDS011;57711;53.196;19.638;2023-03-23T04:24:42;42.80;;;25.60;;
68379;SDS011;57711;53.196;19.638;2023-03-23T04:27:11;48.20;;;28.40;;
68379;SDS011;57711;53.196;19.638;2023-03-23T04:29:38;43.30;;;28.10;;
68379;SDS011;57711;53.196;19.638;2023-03-23T04:32:28;45.00;;;25.90;;
68379;SDS011;57711;53.196;19.638;2023-03-23T04:34:56;44.20;;;26.00;;
68379;SDS011;57711;53.196;19.638;2023-03-23T04:37:30;42.80;;;24.00;;
68379;SDS011;57711;53.196;19.638;2023-03-23T04:39:56;37.50;;;23.70;;
68379;SDS011;57711;53.196;19.638;2023-03-23T04:42:33;40.00;;;23.90;;
68379;SDS011;57711;53.196;19.638;2023-03-23T04:45:18;29.40;;;19.40;;
68379;SDS011;57711;53.196;19.638;2023-03-23T04:47:49;37.80;;;21.50;;
68379;SDS011;57711;53.196;19.638;2023-03-23T04:50:21;37.30;;;21.60;;
68379;SDS011;57711;53.196;19.638;2023-03-23T04:52:50;32.40;;;19.80;;
68379;SDS011;57711;53.196;19.638;2023-03-23T04:55:17;35.40;;;21.90;;
68379;SDS011;57711;53.196;19.638;2023-03-23T04:57:47;41.30;;;22.30;;
68379;SDS011;57711;53.196;19.638;2023-03-23T05:00:30;38.30;;;22.60;;
68379;SDS011;57711;53.196;19.638;2023-03-23T05:02:58;35.00;;;22.20;;
68379;SDS011;57711;53.196;19.638;2023-03-23T05:05:25;34.90;;;19.70;;
68379;SDS011;57711;53.196;19.638;2023-03-23T05:07:54;34.10;;;21.90;;
68379;SDS011;57711;53.196;19.638;2023-03-23T05:10:22;38.40;;;19.90;;
68379;SDS011;57711;53.196;19.638;2023-03-23T05:12:49;38.90;;;22.20;;
68379;SDS011;57711;53.196;19.638;2023-03-23T05:15:15;39.00;;;23.30;;
68379;SDS011;57711;53.196;19.638;2023-03-23T05:17:42;32.50;;;20.00;;
68379;SDS011;57711;53.196;19.638;2023-03-23T05:20:15;37.90;;;21.50;;
68379;SDS011;57711;53.196;19.638;2023-03-23T05:23:02;38.20;;;21.60;;
68379;SDS011;57711;53.196;19.638;2023-03-23T05:25:33;32.10;;;20.30;;
68379;SDS011;57711;53.196;19.638;2023-03-23T05:28:09;38.80;;;21.00;;
68379;SDS011;57711;53.196;19.638;2023-03-23T05:30:57;43.60;;;22.50;;
68379;SDS011;57711;53.196;19.638;2023-03-23T05:33:27;45.40;;;25.00;;
68379;SDS011;57711;53.196;19.638;2023-03-23T05:36:14;49.80;;;29.10;;
68379;SDS011;57711;53.196;19.638;2023-03-23T05:39:02;48.30;;;28.30;;
68379;SDS011;57711;53.196;19.638;2023-03-23T05:41:41;39.70;;;23.20;;
68379;SDS011;57711;53.196;19.638;2023-03-23T05:44:07;39.40;;;23.30;;
68379;SDS011;57711;53.196;19.638;2023-03-23T05:46:53;49.30;;;29.60;;
68379;SDS011;57711;53.196;19.638;2023-03-23T05:49:20;50.40;;;29.60;;
68379;SDS011;57711;53.196;19.638;2023-03-23T05:51:46;42.50;;;26.10;;
68379;SDS011;57711;53.196;19.638;2023-03-23T05:54:13;44.10;;;25.00;;
68379;SDS011;57711;53.196;19.638;2023-03-23T05:56:41;40.80;;;24.80;;
68379;SDS011;57711;53.196;19.638;2023-03-23T05:59:18;43.90;;;24.10;;
68379;SDS011;57711;53.196;19.638;2023-03-23T06:01:45;37.50;;;24.00;;
68379;SDS011;57711;53.196;19.638;2023-03-23T06:04:11;34.30;;;22.60;;
68379;SDS011;57711;53.196;19.638;2023-03-23T06:06:45;35.90;;;22.30;;
68379;SDS011;57711;53.196;19.638;2023-03-23T06:09:11;39.80;;;24.50;;
68379;SDS011;57711;53.196;19.638;2023-03-23T06:11:46;38.10;;;22.40;;
68379;SDS011;57711;53.196;19.638;2023-03-23T06:14:28;41.30;;;22.10;;
68379;SDS011;57711;53.196;19.638;2023-03-23T06:16:55;44.80;;;22.40;;
68379;SDS011;57711;53.196;19.638;2023-03-23T06:19:21;33.50;;;20.00;;
68379;SDS011;57711;53.196;19.638;2023-03-23T06:21:55;38.70;;;21.20;;
68379;SDS011;57711;53.196;19.638;2023-03-23T06:24:44;52.60;;;27.10;;
68379;SDS011;57711;53.196;19.638;2023-03-23T06:27:12;55.70;;;26.40;;
68379;SDS011;57711;53.196;19.638;2023-03-23T06:29:40;74.60;;;29.30;;
68379;SDS011;57711;53.196;19.638;2023-03-23T06:32:06;74.30;;;27.20;;
68379;SDS011;57711;53.196;19.638;2023-03-23T06:34:34;64.60;;;27.10;;
68379;SDS011;57711;53.196;19.638;2023-03-23T06:37:26;47.20;;;20.90;;
68379;SDS011;57711;53.196;19.638;2023-03-23T06:40:04;48.40;;;21.00;;
68379;SDS011;57711;53.196;19.638;2023-03-23T06:42:46;49.70;;;24.70;;
68379;SDS011;57711;53.196;19.638;2023-03-23T06:45:32;47.00;;;23.40;;
68379;SDS011;57711;53.196;19.638;2023-03-23T06:48:23;51.40;;;23.00;;
68379;SDS011;57711;53.196;19.638;2023-03-23T06:50:49;41.60;;;18.80;;
68379;SDS011;57711;53.196;19.638;2023-03-23T06:53:17;47.80;;;23.00;;
68379;SDS011;57711;53.196;19.638;2023-03-23T06:55:46;36.90;;;19.90;;
68379;SDS011;57711;53.196;19.638;2023-03-23T06:58:12;46.00;;;22.60;;
68379;SDS011;57711;53.196;19.638;2023-03-23T07:00:40;43.40;;;21.10;;
68379;SDS011;57711;53.196;19.638;2023-03-23T07:03:07;46.80;;;23.30;;
68379;SDS011;57711;53.196;19.638;2023-03-23T07:05:35;37.10;;;19.50;;
68379;SDS011;57711;53.196;19.638;2023-03-23T07:08:03;29.60;;;17.30;;
68379;SDS011;57711;53.196;19.638;2023-03-23T07:10:34;33.50;;;19.30;;
68379;SDS011;57711;53.196;19.638;2023-03-23T07:13:01;30.40;;;17.40;;
68379;SDS011;57711;53.196;19.638;2023-03-23T07:15:30;36.70;;;17.90;;
68379;SDS011;57711;53.196;19.638;2023-03-23T07:17:56;33.10;;;16.30;;
68379;SDS011;57711;53.196;19.638;2023-03-23T07:20:52;27.20;;;15.50;;
68379;SDS011;57711;53.196;19.638;2023-03-23T07:23:20;20.10;;;12.30;;
68379;SDS011;57711;53.196;19.638;2023-03-23T07:25:52;21.60;;;13.20;;
68379;SDS011;57711;53.196;19.638;2023-03-23T07:28:22;25.30;;;13.90;;
68379;SDS011;57711;53.196;19.638;2023-03-23T07:30:49;27.90;;;14.30;;
68379;SDS011;57711;53.196;19.638;2023-03-23T07:33:15;21.50;;;12.60;;
68379;SDS011;57711;53.196;19.638;2023-03-23T07:35:42;25.00;;;13.30;;
68379;SDS011;57711;53.196;19.638;2023-03-23T07:38:12;19.10;;;12.30;;
68379;SDS011;57711;53.196;19.638;2023-03-23T07:40:40;20.70;;;11.90;;
68379;SDS011;57711;53.196;19.638;2023-03-23T07:43:11;17.50;;;10.40;;
68379;SDS011;57711;53.196;19.638;2023-03-23T07:46:07;47.70;;;25.40;;
68379;SDS011;57711;53.196;19.638;2023-03-23T07:48:41;138.00;;;97.60;;
68379;SDS011;57711;53.196;19.638;2023-03-23T07:51:08;47.70;;;27.70;;
68379;SDS011;57711;53.196;19.638;2023-03-23T07:53:34;23.70;;;14.50;;
68379;SDS011;57711;53.196;19.638;2023-03-23T07:56:12;19.90;;;12.10;;
68379;SDS011;57711;53.196;19.638;2023-03-23T07:58:56;24.60;;;12.20;;
68379;SDS011;57711;53.196;19.638;2023-03-23T08:01:22;21.70;;;11.60;;
68379;SDS011;57711;53.196;19.638;2023-03-23T08:06:51;23.30;;;12.50;;
68379;SDS011;57711;53.196;19.638;2023-03-23T08:09:30;18.50;;;12.00;;
68379;SDS011;57711;53.196;19.638;2023-03-23T08:12:23;22.70;;;12.20;;
68379;SDS011;57711;53.196;19.638;2023-03-23T08:15:01;21.20;;;12.30;;
68379;SDS011;57711;53.196;19.638;2023-03-23T08:17:54;30.40;;;15.60;;
68379;SDS011;57711;53.196;19.638;2023-03-23T08:20:39;22.10;;;12.40;;
68379;SDS011;57711;53.196;19.638;2023-03-23T08:23:25;21.50;;;9.90;;
68379;SDS011;57711;53.196;19.638;2023-03-23T08:26:11;29.70;;;18.50;;
68379;SDS011;57711;53.196;19.638;2023-03-23T08:29:00;27.00;;;11.20;;
68379;SDS011;57711;53.196;19.638;2023-03-23T08:31:50;22.70;;;12.90;;
68379;SDS011;57711;53.196;19.638;2023-03-23T08:34:37;22.70;;;12.00;;
68379;SDS011;57711;53.196;19.638;2023-03-23T08:37:11;17.30;;;9.90;;
68379;SDS011;57711;53.196;19.638;2023-03-23T08:40:15;13.60;;;8.70;;
68379;SDS011;57711;53.196;19.638;2023-03-23T08:42:55;17.40;;;8.10;;
68379;SDS011;57711;53.196;19.638;2023-03-23T08:45:40;20.40;;;9.20;;
68379;SDS011;57711;53.196;19.638;2023-03-23T08:48:25;17.30;;;9.40;;
68379;SDS011;57711;53.196;19.638;2023-03-23T08:51:00;15.20;;;9.20;;
68379;SDS011;57711;53.196;19.638;2023-03-23T08:53:44;23.80;;;12.30;;
68379;SDS011;57711;53.196;19.638;2023-03-23T08:56:14;19.10;;;11.40;;
68379;SDS011;57711;53.196;19.638;2023-03-23T08:58:48;21.10;;;10.30;;
68379;SDS011;57711;53.196;19.638;2023-03-23T09:01:34;36.30;;;17.00;;
68379;SDS011;57711;53.196;19.638;2023-03-23T09:04:20;59.30;;;19.60;;
68379;SDS011;57711;53.196;19.638;2023-03-23T09:07:11;26.10;;;13.30;;
68379;SDS011;57711;53.196;19.638;2023-03-23T09:09:40;20.50;;;12.60;;
68379;SDS011;57711;53.196;19.638;2023-03-23T09:12:07;24.10;;;13.60;;
68379;SDS011;57711;53.196;19.638;2023-03-23T09:14:35;23.10;;;12.90;;
68379;SDS011;57711;53.196;19.638;2023-03-23T09:17:02;20.30;;;10.60;;
68379;SDS011;57711;53.196;19.638;2023-03-23T09:19:29;16.90;;;8.10;;
68379;SDS011;57711;53.196;19.638;2023-03-23T09:21:56;11.00;;;6.70;;
68379;SDS011;57711;53.196;19.638;2023-03-23T09:24:22;13.50;;;7.90;;
68379;SDS011;57711;53.196;19.638;2023-03-23T09:26:48;22.80;;;9.60;;
68379;SDS011;57711;53.196;19.638;2023-03-23T09:29:14;10.70;;;6.10;;
68379;SDS011;57711;53.196;19.638;2023-03-23T09:31:40;12.10;;;7.40;;
68379;SDS011;57711;53.196;19.638;2023-03-23T09:34:07;10.80;;;6.10;;
68379;SDS011;57711;53.196;19.638;2023-03-23T09:36:36;11.30;;;6.10;;
68379;SDS011;57711;53.196;19.638;2023-03-23T09:39:07;14.60;;;6.90;;
68379;SDS011;57711;53.196;19.638;2023-03-23T09:44:47;8.10;;;5.10;;
68379;SDS011;57711;53.196;19.638;2023-03-23T09:50:08;11.60;;;5.60;;
68379;SDS011;57711;53.196;19.638;2023-03-23T09:52:42;11.10;;;5.30;;
68379;SDS011;57711;53.196;19.638;2023-03-23T09:55:11;16.20;;;6.30;;
68379;SDS011;57711;53.196;19.638;2023-03-23T10:00:15;10.60;;;4.90;;
68379;SDS011;57711;53.196;19.638;2023-03-23T10:03:05;12.00;;;6.20;;
68379;SDS011;57711;53.196;19.638;2023-03-23T10:05:41;8.30;;;5.40;;
68379;SDS011;57711;53.196;19.638;2023-03-23T10:08:12;10.80;;;5.50;;
68379;SDS011;57711;53.196;19.638;2023-03-23T10:16:10;11.30;;;5.00;;
68379;SDS011;57711;53.196;19.638;2023-03-23T10:18:43;8.10;;;5.50;;
68379;SDS011;57711;53.196;19.638;2023-03-23T10:21:20;13.20;;;6.20;;
68379;SDS011;57711;53.196;19.638;2023-03-23T10:23:58;7.30;;;4.80;;
68379;SDS011;57711;53.196;19.638;2023-03-23T10:26:33;8.20;;;5.20;;
68379;SDS011;57711;53.196;19.638;2023-03-23T10:29:15;12.50;;;7.40;;
68379;SDS011;57711;53.196;19.638;2023-03-23T10:37:38;15.80;;;9.90;;
68379;SDS011;57711;53.196;19.638;2023-03-23T10:40:15;11.10;;;7.00;;
68379;SDS011;57711;53.196;19.638;2023-03-23T10:42:45;16.00;;;8.10;;
68379;SDS011;57711;53.196;19.638;2023-03-23T10:47:49;12.80;;;8.40;;
68379;SDS011;57711;53.196;19.638;2023-03-23T10:50:21;12.10;;;8.70;;
68379;SDS011;57711;53.196;19.638;2023-03-23T10:52:52;16.30;;;10.90;;
68379;SDS011;57711;53.196;19.638;2023-03-23T10:55:21;9.80;;;6.40;;
68379;SDS011;57711;53.196;19.638;2023-03-23T10:58:00;15.40;;;7.00;;
68379;SDS011;57711;53.196;19.638;2023-03-23T11:00:28;11.20;;;7.10;;
68379;SDS011;57711;53.196;19.638;2023-03-23T11:02:59;10.20;;;6.00;;
68379;SDS011;57711;53.196;19.638;2023-03-23T11:05:40;270.10;;;81.10;;
68379;SDS011;57711;53.196;19.638;2023-03-23T11:08:15;239.30;;;62.60;;
68379;SDS011;57711;53.196;19.638;2023-03-23T11:13:18;247.90;;;59.60;;
68379;SDS011;57711;53.196;19.638;2023-03-23T11:15:46;445.50;;;112.80;;
68379;SDS011;57711;53.196;19.638;2023-03-23T11:18:21;106.90;;;27.90;;
68379;SDS011;57711;53.196;19.638;2023-03-23T11:20:51;153.30;;;44.50;;
68379;SDS011;57711;53.196;19.638;2023-03-23T11:23:23;70.90;;;26.10;;
68379;SDS011;57711;53.196;19.638;2023-03-23T11:28:29;23.30;;;15.10;;
68379;SDS011;57711;53.196;19.638;2023-03-23T11:30:58;27.00;;;18.30;;
68379;SDS011;57711;53.196;19.638;2023-03-23T11:33:34;24.40;;;14.20;;
68379;SDS011;57711;53.196;19.638;2023-03-23T11:36:05;14.50;;;9.10;;
68379;SDS011;57711;53.196;19.638;2023-03-23T11:38:33;24.60;;;14.00;;
68379;SDS011;57711;53.196;19.638;2023-03-23T11:41:00;16.70;;;9.80;;
68379;SDS011;57711;53.196;19.638;2023-03-23T11:43:27;21.60;;;11.30;;
68379;SDS011;57711;53.196;19.638;2023-03-23T11:45:58;12.20;;;8.50;;
68379;SDS011;57711;53.196;19.638;2023-03-23T11:48:39;11.90;;;6.20;;
68379;SDS011;57711;53.196;19.638;2023-03-23T11:54:34;14.60;;;9.10;;
68379;SDS011;57711;53.196;19.638;2023-03-23T11:57:08;13.10;;;8.30;;
68379;SDS011;57711;53.196;19.638;2023-03-23T11:59:37;16.60;;;9.70;;
68379;SDS011;57711;53.196;19.638;2023-03-23T12:07:28;8.50;;;4.60;;
68379;SDS011;57711;53.196;19.638;2023-03-23T12:13:30;5.20;;;4.40;;
68379;SDS011;57711;53.196;19.638;2023-03-23T12:24:39;6.50;;;3.60;;
68379;SDS011;57711;53.196;19.638;2023-03-23T12:33:13;9.40;;;3.70;;
68379;SDS011;57711;53.196;19.638;2023-03-23T12:38:31;8.10;;;4.30;;
68379;SDS011;57711;53.196;19.638;2023-03-23T12:49:08;6.30;;;3.30;;
68379;SDS011;57711;53.196;19.638;2023-03-23T12:51:47;5.30;;;3.20;;
68379;SDS011;57711;53.196;19.638;2023-03-23T12:57:24;5.90;;;3.60;;
68379;SDS011;57711;53.196;19.638;2023-03-23T13:00:01;8.00;;;4.10;;
68379;SDS011;57711;53.196;19.638;2023-03-23T13:02:41;10.20;;;3.70;;
68379;SDS011;57711;53.196;19.638;2023-03-23T13:05:26;10.00;;;4.00;;
68379;SDS011;57711;53.196;19.638;2023-03-23T13:08:03;9.30;;;3.80;;
68379;SDS011;57711;53.196;19.638;2023-03-23T13:13:26;5.30;;;3.60;;
68379;SDS011;57711;53.196;19.638;2023-03-23T13:16:09;6.20;;;3.70;;
68379;SDS011;57711;53.196;19.638;2023-03-23T13:18:47;8.60;;;3.60;;
68379;SDS011;57711;53.196;19.638;2023-03-23T13:21:32;5.60;;;2.90;;
68379;SDS011;57711;53.196;19.638;2023-03-23T13:24:06;6.20;;;3.20;;
68379;SDS011;57711;53.196;19.638;2023-03-23T13:26:40;7.20;;;3.90;;
68379;SDS011;57711;53.196;19.638;2023-03-23T13:29:09;11.00;;;4.00;;
68379;SDS011;57711;53.196;19.638;2023-03-23T13:31:39;12.20;;;4.80;;
68379;SDS011;57711;53.196;19.638;2023-03-23T13:34:20;7.90;;;4.70;;
68379;SDS011;57711;53.196;19.638;2023-03-23T13:39:26;7.70;;;4.30;;
68379;SDS011;57711;53.196;19.638;2023-03-23T13:44:42;11.70;;;5.60;;
68379;SDS011;57711;53.196;19.638;2023-03-23T13:49:58;14.20;;;6.70;;
68379;SDS011;57711;53.196;19.638;2023-03-23T13:52:37;12.10;;;7.20;;
68379;SDS011;57711;53.196;19.638;2023-03-23T14:10:40;12.00;;;7.10;;
68379;SDS011;57711;53.196;19.638;2023-03-23T14:13:23;17.30;;;7.80;;
68379;SDS011;57711;53.196;19.638;2023-03-23T14:15:58;17.40;;;8.90;;
68379;SDS011;57711;53.196;19.638;2023-03-23T14:18:29;16.20;;;8.30;;
68379;SDS011;57711;53.196;19.638;2023-03-23T14:20:57;17.10;;;10.30;;
68379;SDS011;57711;53.196;19.638;2023-03-23T14:23:25;20.00;;;10.70;;
68379;SDS011;57711;53.196;19.638;2023-03-23T14:25:54;15.50;;;9.00;;
68379;SDS011;57711;53.196;19.638;2023-03-23T14:28:22;12.90;;;8.60;;
68379;SDS011;57711;53.196;19.638;2023-03-23T14:30:51;10.10;;;7.40;;
68379;SDS011;57711;53.196;19.638;2023-03-23T14:33:20;22.10;;;13.00;;
68379;SDS011;57711;53.196;19.638;2023-03-23T14:35:46;38.90;;;23.20;;
68379;SDS011;57711;53.196;19.638;2023-03-23T14:38:16;58.60;;;30.90;;
68379;SDS011;57711;53.196;19.638;2023-03-23T14:40:45;66.10;;;36.80;;
68379;SDS011;57711;53.196;19.638;2023-03-23T14:43:14;59.80;;;32.80;;
68379;SDS011;57711;53.196;19.638;2023-03-23T14:45:43;43.00;;;23.30;;
68379;SDS011;57711;53.196;19.638;2023-03-23T14:48:11;53.60;;;31.50;;
68379;SDS011;57711;53.196;19.638;2023-03-23T14:50:41;35.40;;;23.10;;
68379;SDS011;57711;53.196;19.638;2023-03-23T14:55:51;20.60;;;8.40;;
68379;SDS011;57711;53.196;19.638;2023-03-23T14:58:21;28.60;;;10.50;;
68379;SDS011;57711;53.196;19.638;2023-03-23T15:00:56;23.50;;;10.70;;
68379;SDS011;57711;53.196;19.638;2023-03-23T15:03:27;38.30;;;18.20;;
68379;SDS011;57711;53.196;19.638;2023-03-23T15:05:58;31.00;;;16.40;;
68379;SDS011;57711;53.196;19.638;2023-03-23T15:08:29;16.10;;;9.90;;
68379;SDS011;57711;53.196;19.638;2023-03-23T15:11:08;14.80;;;8.20;;
68379;SDS011;57711;53.196;19.638;2023-03-23T15:13:47;16.70;;;7.50;;
68379;SDS011;57711;53.196;19.638;2023-03-23T15:16:32;23.20;;;9.60;;
68379;SDS011;57711;53.196;19.638;2023-03-23T15:19:03;19.30;;;9.80;;
68379;SDS011;57711;53.196;19.638;2023-03-23T15:21:49;31.60;;;15.80;;
68379;SDS011;57711;53.196;19.638;2023-03-23T15:24:25;22.20;;;10.20;;
68379;SDS011;57711;53.196;19.638;2023-03-23T15:26:54;23.60;;;12.10;;
68379;SDS011;57711;53.196;19.638;2023-03-23T15:29:45;22.80;;;13.40;;
68379;SDS011;57711;53.196;19.638;2023-03-23T15:32:25;26.10;;;14.00;;
68379;SDS011;57711;53.196;19.638;2023-03-23T15:34:53;30.60;;;17.30;;
68379;SDS011;57711;53.196;19.638;2023-03-23T15:37:25;18.50;;;11.90;;
68379;SDS011;57711;53.196;19.638;2023-03-23T15:39:57;21.00;;;14.10;;
68379;SDS011;57711;53.196;19.638;2023-03-23T15:42:29;36.40;;;23.70;;
68379;SDS011;57711;53.196;19.638;2023-03-23T15:45:21;52.10;;;34.90;;
68379;SDS011;57711;53.196;19.638;2023-03-23T15:47:53;60.20;;;36.00;;
68379;SDS011;57711;53.196;19.638;2023-03-23T15:52:52;63.10;;;34.00;;
68379;SDS011;57711;53.196;19.638;2023-03-23T15:55:23;49.20;;;24.00;;
68379;SDS011;57711;53.196;19.638;2023-03-23T15:57:51;43.50;;;22.40;;
68379;SDS011;57711;53.196;19.638;2023-03-23T16:00:20;51.00;;;27.70;;
68379;SDS011;57711;53.196;19.638;2023-03-23T16:02:52;52.30;;;25.50;;
68379;SDS011;57711;53.196;19.638;2023-03-23T16:05:21;56.00;;;24.90;;
68379;SDS011;57711;53.196;19.638;2023-03-23T16:07:49;78.90;;;31.90;;
68379;SDS011;57711;53.196;19.638;2023-03-23T16:10:17;72.10;;;32.50;;
68379;SDS011;57711;53.196;19.638;2023-03-23T16:12:46;119.50;;;53.80;;
68379;SDS011;57711;53.196;19.638;2023-03-23T16:15:14;156.10;;;66.90;;
68379;SDS011;57711;53.196;19.638;2023-03-23T16:17:42;205.70;;;104.20;;
68379;SDS011;57711;53.196;19.638;2023-03-23T16:20:14;98.80;;;48.10;;
68379;SDS011;57711;53.196;19.638;2023-03-23T16:22:43;126.10;;;59.70;;
68379;SDS011;57711;53.196;19.638;2023-03-23T16:25:11;81.40;;;38.30;;
68379;SDS011;57711;53.196;19.638;2023-03-23T16:27:40;87.40;;;46.00;;
68379;SDS011;57711;53.196;19.638;2023-03-23T16:30:20;53.00;;;32.80;;
68379;SDS011;57711;53.196;19.638;2023-03-23T16:32:49;44.30;;;25.20;;
68379;SDS011;57711;53.196;19.638;2023-03-23T16:35:17;28.00;;;19.00;;
68379;SDS011;57711;53.196;19.638;2023-03-23T16:37:46;48.10;;;25.10;;
68379;SDS011;57711;53.196;19.638;2023-03-23T16:40:15;40.60;;;23.90;;
68379;SDS011;57711;53.196;19.638;2023-03-23T16:42:43;47.50;;;25.20;;
68379;SDS011;57711;53.196;19.638;2023-03-23T16:45:10;30.00;;;18.60;;
68379;SDS011;57711;53.196;19.638;2023-03-23T16:47:38;42.80;;;25.50;;
68379;SDS011;57711;53.196;19.638;2023-03-23T16:50:07;238.40;;;127.70;;
68379;SDS011;57711;53.196;19.638;2023-03-23T16:52:40;123.50;;;63.80;;